createdAt,value
2019-02-17T00:00:07.630Z,14.80
2019-02-17T00:01:07.688Z,15.00
2019-02-17T00:02:07.629Z,15.00
2019-02-17T00:03:07.695Z,15.00
2019-02-17T00:04:07.693Z,15.00
2019-02-17T00:05:07.605Z,15.00
2019-02-17T00:06:07.702Z,15.00
2019-02-17T00:07:07.589Z,15.00
2019-02-17T00:08:07.702Z,15.00
2019-02-17T00:09:07.643Z,15.00
2019-02-17T00:10:07.633Z,15.00
2019-02-17T00:11:07.641Z,13.20
2019-02-17T00:12:07.709Z,13.20
2019-02-17T00:13:07.649Z,13.20
2019-02-17T00:14:07.650Z,13.20
2019-02-17T00:15:07.714Z,13.20
2019-02-17T00:16:07.730Z,13.20
2019-02-17T00:17:07.715Z,13.20
2019-02-17T00:18:07.653Z,13.20
2019-02-17T00:19:07.719Z,13.20
2019-02-17T00:20:08.184Z,13.20
2019-02-17T00:21:07.651Z,12.40
2019-02-17T00:22:07.670Z,12.40
2019-02-17T00:23:07.696Z,12.40
2019-02-17T00:24:07.712Z,12.40
2019-02-17T00:25:07.616Z,12.40
2019-02-17T00:26:07.650Z,12.40
2019-02-17T00:27:07.680Z,12.40
2019-02-17T00:28:07.593Z,12.40
2019-02-17T00:29:07.622Z,12.40
2019-02-17T00:30:07.619Z,12.40
2019-02-17T00:31:07.701Z,9.40
2019-02-17T00:32:07.739Z,9.40
2019-02-17T00:33:07.633Z,9.40
2019-02-17T00:34:07.702Z,9.40
2019-02-17T00:35:07.750Z,9.40
2019-02-17T00:36:07.746Z,9.40
2019-02-17T00:37:07.701Z,9.40
2019-02-17T00:38:07.755Z,9.40
2019-02-17T00:39:07.632Z,9.40
2019-02-17T00:40:07.703Z,9.40
2019-02-17T00:41:07.655Z,11.00
2019-02-17T00:42:07.665Z,11.00
2019-02-17T00:43:07.663Z,11.00
2019-02-17T00:44:07.698Z,11.00
2019-02-17T00:45:07.712Z,11.00
2019-02-17T00:46:07.683Z,11.00
2019-02-17T00:47:07.761Z,11.00
2019-02-17T00:48:07.625Z,11.00
2019-02-17T00:49:07.621Z,11.00
2019-02-17T00:50:07.730Z,11.00
2019-02-17T00:51:07.637Z,11.70
2019-02-17T00:52:07.679Z,11.70
2019-02-17T00:53:07.649Z,11.70
2019-02-17T00:54:07.710Z,11.70
2019-02-17T00:55:07.708Z,11.70
2019-02-17T00:56:07.694Z,11.70
2019-02-17T00:57:07.885Z,11.70
2019-02-17T00:58:07.790Z,11.70
2019-02-17T00:59:10.389Z,11.70
2019-02-17T01:00:07.710Z,11.70
2019-02-17T01:01:07.787Z,15.70
2019-02-17T01:02:07.784Z,15.70
2019-02-17T01:03:07.781Z,15.70
2019-02-17T01:04:07.765Z,15.70
2019-02-17T01:05:07.773Z,15.70
2019-02-17T01:06:07.772Z,15.70
2019-02-17T01:07:07.651Z,15.70
2019-02-17T01:08:07.761Z,15.70
2019-02-17T01:09:07.694Z,15.70
2019-02-17T01:10:07.704Z,15.70
2019-02-17T01:11:07.753Z,13.00
2019-02-17T01:12:07.677Z,13.00
2019-02-17T01:13:07.754Z,13.00
2019-02-17T01:14:07.693Z,13.00
2019-02-17T01:15:07.670Z,13.00
2019-02-17T01:16:07.750Z,13.00
2019-02-17T01:17:07.643Z,13.00
2019-02-17T01:18:07.696Z,13.00
2019-02-17T01:19:07.720Z,13.00
2019-02-17T01:20:07.665Z,13.00
2019-02-17T01:21:07.761Z,7.60
2019-02-17T01:22:07.699Z,7.60
2019-02-17T01:23:07.720Z,7.60
2019-02-17T01:24:07.764Z,7.60
2019-02-17T01:25:07.697Z,7.60
2019-02-17T01:26:07.702Z,7.60
2019-02-17T01:27:07.700Z,7.60
2019-02-17T01:28:07.766Z,7.60
2019-02-17T01:29:07.709Z,7.60
2019-02-17T01:30:07.767Z,7.60
2019-02-17T01:31:08.534Z,11.30
2019-02-17T01:32:07.709Z,11.30
2019-02-17T01:33:07.770Z,11.30
2019-02-17T01:34:07.702Z,11.30
2019-02-17T01:35:07.714Z,11.30
2019-02-17T01:36:07.777Z,11.30
2019-02-17T01:37:07.777Z,11.30
2019-02-17T01:38:07.707Z,11.30
2019-02-17T01:39:07.780Z,11.30
2019-02-17T01:40:07.711Z,11.30
2019-02-17T01:41:07.804Z,14.60
2019-02-17T01:42:07.728Z,14.60
2019-02-17T01:43:07.811Z,14.60
2019-02-17T01:44:07.797Z,14.60
2019-02-17T01:45:07.790Z,14.60
2019-02-17T01:46:07.796Z,14.60
2019-02-17T01:47:07.799Z,14.60
2019-02-17T01:48:07.792Z,14.60
2019-02-17T01:49:07.759Z,14.60
2019-02-17T01:50:07.797Z,14.60
2019-02-17T01:51:07.737Z,13.30
2019-02-17T01:52:07.811Z,13.30
2019-02-17T01:53:07.744Z,13.30
2019-02-17T01:54:07.843Z,13.30
2019-02-17T01:55:07.824Z,13.30
2019-02-17T01:56:07.820Z,13.30
2019-02-17T01:57:07.694Z,13.30
2019-02-17T01:58:07.798Z,13.30
2019-02-17T01:59:07.735Z,13.30
2019-02-17T02:00:07.786Z,13.30
2019-02-17T02:01:07.813Z,10.70
2019-02-17T02:02:07.751Z,10.70
2019-02-17T02:03:07.786Z,10.70
2019-02-17T02:04:07.811Z,10.70
2019-02-17T02:05:07.743Z,10.70
2019-02-17T02:06:07.754Z,10.70
2019-02-17T02:07:07.835Z,10.70
2019-02-17T02:08:07.831Z,10.70
2019-02-17T02:09:07.748Z,10.70
2019-02-17T02:10:07.813Z,10.70
2019-02-17T02:11:07.777Z,9.00
2019-02-17T02:12:07.718Z,9.00
2019-02-17T02:13:07.728Z,9.00
2019-02-17T02:14:07.781Z,9.00
2019-02-17T02:15:07.740Z,9.00
2019-02-17T02:16:07.749Z,9.00
2019-02-17T02:17:07.730Z,9.00
2019-02-17T02:18:07.796Z,9.00
2019-02-17T02:19:07.750Z,9.00
2019-02-17T02:20:07.762Z,9.00
2019-02-17T02:21:07.724Z,10.80
2019-02-17T02:22:07.724Z,10.80
2019-02-17T02:23:07.764Z,10.80
2019-02-17T02:24:07.666Z,10.80
2019-02-17T02:25:07.695Z,10.80
2019-02-17T02:26:07.781Z,10.80
2019-02-17T02:27:07.782Z,10.80
2019-02-17T02:28:07.772Z,10.80
2019-02-17T02:29:07.694Z,10.80
2019-02-17T02:30:07.794Z,10.80
2019-02-17T02:31:07.741Z,10.90
2019-02-17T02:32:07.809Z,10.90
2019-02-17T02:33:07.818Z,10.90
2019-02-17T02:34:07.812Z,10.90
2019-02-17T02:35:07.747Z,10.90
2019-02-17T02:36:07.811Z,10.90
2019-02-17T02:37:07.765Z,10.90
2019-02-17T02:38:07.754Z,10.90
2019-02-17T02:39:07.816Z,10.90
2019-02-17T02:40:07.768Z,10.90
2019-02-17T02:41:07.797Z,10.90
2019-02-17T02:42:07.722Z,10.90
2019-02-17T02:43:07.848Z,10.90
2019-02-17T02:44:07.857Z,10.90
2019-02-17T02:45:07.861Z,10.90
2019-02-17T02:46:07.855Z,10.90
2019-02-17T02:47:07.852Z,10.90
2019-02-17T02:48:07.834Z,10.90
2019-02-17T02:49:07.783Z,10.90
2019-02-17T02:50:07.846Z,10.90
2019-02-17T02:51:07.864Z,9.30
2019-02-17T02:52:07.798Z,9.30
2019-02-17T02:53:07.836Z,9.30
2019-02-17T02:54:07.798Z,9.30
2019-02-17T02:55:07.842Z,9.30
2019-02-17T02:56:07.746Z,9.30
2019-02-17T02:57:07.798Z,9.30
2019-02-17T02:58:07.831Z,9.30
2019-02-17T02:59:07.857Z,9.30
2019-02-17T03:00:07.829Z,9.30
2019-02-17T03:01:07.808Z,9.10
2019-02-17T03:02:07.770Z,9.10
2019-02-17T03:03:07.846Z,9.10
2019-02-17T03:04:07.805Z,9.10
2019-02-17T03:05:07.789Z,9.10
2019-02-17T03:06:07.768Z,9.10
2019-02-17T03:07:07.785Z,9.10
2019-02-17T03:08:07.821Z,9.10
2019-02-17T03:09:07.867Z,9.10
2019-02-17T03:10:07.851Z,9.10
2019-02-17T03:11:07.768Z,12.80
2019-02-17T03:12:07.772Z,12.80
2019-02-17T03:13:07.842Z,12.80
2019-02-17T03:14:07.772Z,12.80
2019-02-17T03:15:07.853Z,12.80
2019-02-17T03:16:07.854Z,12.80
2019-02-17T03:17:07.790Z,12.80
2019-02-17T03:18:07.841Z,12.80
2019-02-17T03:19:07.771Z,12.80
2019-02-17T03:20:07.845Z,12.80
2019-02-17T03:21:07.811Z,12.80
2019-02-17T03:22:07.821Z,12.80
2019-02-17T03:23:07.845Z,12.80
2019-02-17T03:24:07.751Z,12.80
2019-02-17T03:25:07.821Z,12.80
2019-02-17T03:26:07.813Z,12.80
2019-02-17T03:27:07.831Z,12.80
2019-02-17T03:28:07.830Z,12.80
2019-02-17T03:29:07.812Z,12.80
2019-02-17T03:30:07.832Z,12.80
2019-02-17T03:31:07.867Z,11.40
2019-02-17T03:32:07.766Z,11.40
2019-02-17T03:33:07.832Z,11.40
2019-02-17T03:34:07.875Z,11.40
2019-02-17T03:35:07.821Z,11.40
2019-02-17T03:36:07.867Z,11.40
2019-02-17T03:37:07.757Z,11.40
2019-02-17T03:38:07.820Z,11.40
2019-02-17T03:39:07.876Z,11.40
2019-02-17T03:40:07.856Z,11.40
2019-02-17T03:41:07.794Z,10.70
2019-02-17T03:42:07.859Z,10.70
2019-02-17T03:43:07.901Z,10.70
2019-02-17T03:44:07.817Z,10.70
2019-02-17T03:45:07.806Z,10.70
2019-02-17T03:46:07.795Z,10.70
2019-02-17T03:47:07.830Z,10.70
2019-02-17T03:48:07.896Z,10.70
2019-02-17T03:49:07.765Z,10.70
2019-02-17T03:50:07.811Z,10.70
2019-02-17T03:51:07.900Z,10.10
2019-02-17T03:52:07.789Z,10.10
2019-02-17T03:53:07.876Z,10.10
2019-02-17T03:54:07.872Z,10.10
2019-02-17T03:55:07.895Z,10.10
2019-02-17T03:56:07.867Z,10.10
2019-02-17T03:57:07.843Z,10.10
2019-02-17T03:58:07.772Z,10.10
2019-02-17T03:59:07.887Z,10.10
2019-02-17T04:00:16.557Z,10.10
2019-02-17T04:01:07.853Z,10.70
2019-02-17T04:02:07.849Z,10.70
2019-02-17T04:03:07.842Z,10.70
2019-02-17T04:04:07.898Z,10.70
2019-02-17T04:05:07.897Z,10.70
2019-02-17T04:06:07.894Z,10.70
2019-02-17T04:07:07.873Z,10.70
2019-02-17T04:08:07.838Z,10.70
2019-02-17T04:09:07.835Z,10.70
2019-02-17T04:10:07.843Z,10.70
2019-02-17T04:11:07.915Z,10.70
2019-02-17T04:12:07.899Z,11.70
2019-02-17T04:13:07.908Z,11.70
2019-02-17T04:14:07.861Z,11.70
2019-02-17T04:15:07.881Z,11.70
2019-02-17T04:16:07.857Z,11.70
2019-02-17T04:17:07.897Z,11.70
2019-02-17T04:18:07.906Z,11.70
2019-02-17T04:19:07.856Z,11.70
2019-02-17T04:20:07.871Z,11.70
2019-02-17T04:21:07.785Z,11.70
2019-02-17T04:22:07.784Z,10.50
2019-02-17T04:23:07.904Z,10.50
2019-02-17T04:24:07.919Z,10.50
2019-02-17T04:25:07.790Z,10.50
2019-02-17T04:26:07.869Z,10.50
2019-02-17T04:27:07.851Z,10.50
2019-02-17T04:28:07.856Z,10.50
2019-02-17T04:29:10.214Z,10.50
2019-02-17T04:30:07.933Z,10.50
2019-02-17T04:31:07.796Z,10.50
2019-02-17T04:32:07.830Z,9.90
2019-02-17T04:33:07.918Z,9.90
2019-02-17T04:34:07.926Z,9.90
2019-02-17T04:35:07.917Z,9.90
2019-02-17T04:36:07.931Z,9.90
2019-02-17T04:37:07.876Z,9.90
2019-02-17T04:38:07.918Z,9.90
2019-02-17T04:39:07.944Z,9.90
2019-02-17T04:40:07.918Z,9.90
2019-02-17T04:41:07.864Z,9.90
2019-02-17T04:42:07.861Z,11.70
2019-02-17T04:43:07.902Z,11.70
2019-02-17T04:44:07.840Z,11.70
2019-02-17T04:45:07.833Z,11.70
2019-02-17T04:46:07.901Z,11.70
2019-02-17T04:47:07.855Z,11.70
2019-02-17T04:48:07.841Z,11.70
2019-02-17T04:49:07.909Z,11.70
2019-02-17T04:50:07.911Z,11.70
2019-02-17T04:51:07.907Z,11.70
2019-02-17T04:52:07.861Z,13.00
2019-02-17T04:53:07.861Z,13.00
2019-02-17T04:54:07.840Z,13.00
2019-02-17T04:55:07.896Z,13.00
2019-02-17T04:56:07.781Z,13.00
2019-02-17T04:57:07.778Z,13.00
2019-02-17T04:58:07.779Z,13.00
2019-02-17T04:59:07.840Z,13.00
2019-02-17T05:00:07.945Z,13.00
2019-02-17T05:01:07.901Z,13.00
2019-02-17T05:02:07.910Z,12.20
2019-02-17T05:03:07.949Z,12.20
2019-02-17T05:04:07.936Z,12.20
2019-02-17T05:05:07.904Z,12.20
2019-02-17T05:06:07.871Z,12.20
2019-02-17T05:07:07.939Z,12.20
2019-02-17T05:08:07.839Z,12.20
2019-02-17T05:09:07.918Z,12.20
2019-02-17T05:10:07.919Z,12.20
2019-02-17T05:11:07.953Z,12.20
2019-02-17T05:12:07.873Z,12.70
2019-02-17T05:13:07.898Z,12.70
2019-02-17T05:14:07.903Z,12.70
2019-02-17T05:15:07.894Z,12.70
2019-02-17T05:16:07.926Z,12.70
2019-02-17T05:17:07.900Z,12.70
2019-02-17T05:18:07.947Z,12.70
2019-02-17T05:19:07.879Z,12.70
2019-02-17T05:20:07.954Z,12.70
2019-02-17T05:21:07.878Z,12.70
2019-02-17T05:22:07.832Z,10.80
2019-02-17T05:23:07.969Z,10.80
2019-02-17T05:24:07.951Z,10.80
2019-02-17T05:25:07.916Z,10.80
2019-02-17T05:26:07.878Z,10.80
2019-02-17T05:27:07.932Z,10.80
2019-02-17T05:28:07.911Z,10.80
2019-02-17T05:29:07.903Z,10.80
2019-02-17T05:30:07.950Z,10.80
2019-02-17T05:31:07.937Z,10.80
2019-02-17T05:32:08.000Z,14.90
2019-02-17T05:33:07.937Z,14.90
2019-02-17T05:34:07.866Z,14.90
2019-02-17T05:35:07.868Z,14.90
2019-02-17T05:36:07.938Z,14.90
2019-02-17T05:37:07.897Z,14.90
2019-02-17T05:38:07.939Z,14.90
2019-02-17T05:39:07.877Z,14.90
2019-02-17T05:40:07.945Z,14.90
2019-02-17T05:41:07.885Z,14.90
2019-02-17T05:42:07.967Z,9.90
2019-02-17T05:43:07.982Z,9.90
2019-02-17T05:44:07.983Z,9.90
2019-02-17T05:45:07.921Z,9.90
2019-02-17T05:46:07.907Z,9.90
2019-02-17T05:47:07.970Z,9.90
2019-02-17T05:48:07.923Z,9.90
2019-02-17T05:49:07.974Z,9.90
2019-02-17T05:50:07.907Z,9.90
2019-02-17T05:51:07.980Z,9.90
2019-02-17T05:52:07.843Z,11.60
2019-02-17T05:54:07.838Z,11.60
2019-02-17T05:55:07.838Z,11.60
2019-02-17T05:56:07.885Z,11.60
2019-02-17T05:57:07.862Z,11.60
2019-02-17T05:58:07.930Z,11.60
2019-02-17T05:59:07.937Z,11.60
2019-02-17T06:00:07.903Z,11.60
2019-02-17T06:01:07.888Z,11.60
2019-02-17T06:02:07.842Z,12.00
2019-02-17T06:03:07.895Z,12.00
2019-02-17T06:04:07.896Z,12.00
2019-02-17T06:05:07.955Z,12.00
2019-02-17T06:06:07.888Z,12.00
2019-02-17T06:07:07.958Z,12.00
2019-02-17T06:08:07.949Z,12.00
2019-02-17T06:09:07.943Z,12.00
2019-02-17T06:10:07.843Z,12.00
2019-02-17T06:11:07.838Z,12.00
2019-02-17T06:12:07.988Z,11.30
2019-02-17T06:13:07.931Z,11.30
2019-02-17T06:14:08.008Z,11.30
2019-02-17T06:15:07.971Z,11.30
2019-02-17T06:16:07.965Z,11.30
2019-02-17T06:17:07.927Z,11.30
2019-02-17T06:18:07.965Z,11.30
2019-02-17T06:19:07.939Z,11.30
2019-02-17T06:20:07.988Z,11.30
2019-02-17T06:21:07.995Z,11.30
2019-02-17T06:22:07.968Z,10.10
2019-02-17T06:23:07.907Z,10.10
2019-02-17T06:24:07.920Z,10.10
2019-02-17T06:25:07.915Z,10.10
2019-02-17T06:26:08.074Z,10.10
2019-02-17T06:27:07.908Z,10.10
2019-02-17T06:28:07.978Z,10.10
2019-02-17T06:29:07.917Z,10.10
2019-02-17T06:30:07.974Z,10.10
2019-02-17T06:31:14.571Z,10.10
2019-02-17T06:32:07.986Z,9.30
2019-02-17T06:33:07.965Z,9.30
2019-02-17T06:34:07.932Z,9.30
2019-02-17T06:35:07.867Z,9.30
2019-02-17T06:36:07.921Z,9.30
2019-02-17T06:37:07.933Z,9.30
2019-02-17T06:38:07.979Z,9.30
2019-02-17T06:39:07.970Z,9.30
2019-02-17T06:40:07.911Z,9.30
2019-02-17T06:41:07.969Z,9.30
2019-02-17T06:42:07.918Z,11.50
2019-02-17T06:43:07.986Z,11.50
2019-02-17T06:44:07.927Z,11.50
2019-02-17T06:45:07.984Z,11.50
2019-02-17T06:46:07.914Z,11.50
2019-02-17T06:47:07.997Z,11.50
2019-02-17T06:48:07.986Z,11.50
2019-02-17T06:49:07.934Z,11.50
2019-02-17T06:50:07.992Z,11.50
2019-02-17T06:51:07.915Z,11.50
2019-02-17T06:52:07.856Z,13.99
2019-02-17T06:53:07.942Z,13.99
2019-02-17T06:54:07.913Z,13.99
2019-02-17T06:55:07.863Z,13.99
2019-02-17T06:56:09.098Z,13.99
2019-02-17T06:57:07.869Z,13.99
2019-02-17T06:58:07.927Z,13.99
2019-02-17T06:59:07.918Z,13.99
2019-02-17T07:00:07.861Z,13.99
2019-02-17T07:01:07.854Z,13.99
2019-02-17T07:02:07.929Z,12.90
2019-02-17T07:03:07.995Z,12.90
2019-02-17T07:04:07.998Z,12.90
2019-02-17T07:05:07.937Z,12.90
2019-02-17T07:06:07.938Z,12.90
2019-02-17T07:07:08.011Z,12.90
2019-02-17T07:08:07.947Z,12.90
2019-02-17T07:09:08.003Z,12.90
2019-02-17T07:10:08.008Z,12.90
2019-02-17T07:11:08.002Z,12.90
2019-02-17T07:12:07.995Z,16.80
2019-02-17T07:13:07.943Z,16.80
2019-02-17T07:14:07.957Z,16.80
2019-02-17T07:15:07.966Z,16.80
2019-02-17T07:16:07.967Z,16.80
2019-02-17T07:17:08.034Z,16.80
2019-02-17T07:18:08.023Z,16.80
2019-02-17T07:19:08.025Z,16.80
2019-02-17T07:20:09.689Z,16.80
2019-02-17T07:21:07.972Z,16.80
2019-02-17T07:22:07.950Z,13.20
2019-02-17T07:23:08.021Z,13.20
2019-02-17T07:24:08.021Z,13.20
2019-02-17T07:25:08.072Z,13.20
2019-02-17T07:26:08.014Z,13.20
2019-02-17T07:27:07.954Z,13.20
2019-02-17T07:28:08.036Z,13.20
2019-02-17T07:29:07.946Z,13.20
2019-02-17T07:30:08.017Z,13.20
2019-02-17T07:31:08.017Z,13.20
2019-02-17T07:32:08.007Z,11.30
2019-02-17T07:33:07.926Z,11.30
2019-02-17T07:34:08.004Z,11.30
2019-02-17T07:35:07.926Z,11.30
2019-02-17T07:36:08.014Z,11.30
2019-02-17T07:37:07.948Z,11.30
2019-02-17T07:38:08.025Z,11.30
2019-02-17T07:39:07.926Z,11.30
2019-02-17T07:40:08.016Z,11.30
2019-02-17T07:41:07.957Z,11.30
2019-02-17T07:42:09.581Z,16.30
2019-02-17T07:43:07.958Z,16.30
2019-02-17T07:44:08.027Z,16.30
2019-02-17T07:45:08.026Z,16.30
2019-02-17T07:46:08.038Z,16.30
2019-02-17T07:47:07.964Z,16.30
2019-02-17T07:48:08.038Z,16.30
2019-02-17T07:49:08.034Z,16.30
2019-02-17T07:50:07.961Z,16.30
2019-02-17T07:51:08.031Z,16.30
2019-02-17T07:52:07.968Z,18.20
2019-02-17T07:53:08.031Z,18.20
2019-02-17T07:54:08.013Z,18.20
2019-02-17T07:55:07.962Z,18.20
2019-02-17T07:56:08.039Z,18.20
2019-02-17T07:57:07.995Z,18.20
2019-02-17T07:58:08.037Z,18.20
2019-02-17T07:59:08.045Z,18.20
2019-02-17T08:00:08.037Z,18.20
2019-02-17T08:01:07.974Z,18.20
2019-02-17T08:02:07.977Z,14.40
2019-02-17T08:03:08.052Z,14.40
2019-02-17T08:04:08.053Z,14.40
2019-02-17T08:05:08.047Z,14.40
2019-02-17T08:06:08.001Z,14.40
2019-02-17T08:07:08.001Z,14.40
2019-02-17T08:08:08.052Z,14.40
2019-02-17T08:09:07.982Z,14.40
2019-02-17T08:10:08.060Z,14.40
2019-02-17T08:11:07.998Z,14.40
2019-02-17T08:12:08.055Z,20.30
2019-02-17T08:13:08.056Z,20.30
2019-02-17T08:14:08.070Z,20.30
2019-02-17T08:15:08.085Z,20.30
2019-02-17T08:16:08.063Z,20.30
2019-02-17T08:17:08.018Z,20.30
2019-02-17T08:18:08.064Z,20.30
2019-02-17T08:19:08.072Z,20.30
2019-02-17T08:20:07.996Z,20.30
2019-02-17T08:21:08.062Z,20.30
2019-02-17T08:22:08.060Z,19.10
2019-02-17T08:23:07.999Z,19.10
2019-02-17T08:24:08.069Z,19.10
2019-02-17T08:25:07.999Z,19.10
2019-02-17T08:26:08.070Z,19.10
2019-02-17T08:27:08.081Z,19.10
2019-02-17T08:28:08.063Z,19.10
2019-02-17T08:29:07.993Z,19.10
2019-02-17T08:30:08.070Z,19.10
2019-02-17T08:31:08.070Z,19.10
2019-02-17T08:32:08.007Z,20.99
2019-02-17T08:33:07.997Z,20.99
2019-02-17T08:34:08.088Z,20.99
2019-02-17T08:35:08.003Z,20.99
2019-02-17T08:36:08.169Z,20.99
2019-02-17T08:37:08.103Z,20.99
2019-02-17T08:38:08.002Z,20.99
2019-02-17T08:39:08.075Z,20.99
2019-02-17T08:40:08.080Z,20.99
2019-02-17T08:41:08.004Z,20.99
2019-02-17T08:42:08.087Z,22.80
2019-02-17T08:43:08.037Z,22.80
2019-02-17T08:44:08.024Z,22.80
2019-02-17T08:45:08.016Z,22.80
2019-02-17T08:46:08.080Z,22.80
2019-02-17T08:47:08.088Z,22.80
2019-02-17T08:48:08.106Z,22.80
2019-02-17T08:49:08.084Z,22.80
2019-02-17T08:50:08.093Z,22.80
2019-02-17T08:51:08.089Z,22.80
2019-02-17T08:52:08.059Z,22.00
2019-02-17T08:53:08.012Z,22.00
2019-02-17T08:54:07.961Z,22.00
2019-02-17T08:55:08.062Z,22.00
2019-02-17T08:56:08.000Z,22.00
2019-02-17T08:57:08.000Z,22.00
2019-02-17T08:58:07.952Z,22.00
2019-02-17T08:59:07.977Z,22.00
2019-02-17T09:00:08.013Z,22.00
2019-02-17T09:01:08.067Z,22.00
2019-02-17T09:02:08.081Z,20.40
2019-02-17T09:03:08.016Z,20.40
2019-02-17T09:04:08.006Z,20.40
2019-02-17T09:05:08.090Z,20.40
2019-02-17T09:06:08.014Z,20.40
2019-02-17T09:07:08.086Z,20.40
2019-02-17T09:08:08.027Z,20.40
2019-02-17T09:09:08.089Z,20.40
2019-02-17T09:10:08.010Z,20.40
2019-02-17T09:11:08.094Z,20.40
2019-02-17T09:12:08.032Z,17.50
2019-02-17T09:13:08.111Z,17.50
2019-02-17T09:14:08.121Z,17.50
2019-02-17T09:15:08.026Z,17.50
2019-02-17T09:16:08.075Z,17.50
2019-02-17T09:17:08.029Z,17.50
2019-02-17T09:18:08.104Z,17.50
2019-02-17T09:19:07.999Z,17.50
2019-02-17T09:20:08.125Z,17.50
2019-02-17T09:21:08.113Z,17.50
2019-02-17T09:22:08.073Z,16.20
2019-02-17T09:23:08.054Z,16.20
2019-02-17T09:24:08.019Z,16.20
2019-02-17T09:25:08.078Z,16.20
2019-02-17T09:26:07.989Z,16.20
2019-02-17T09:27:08.082Z,16.20
2019-02-17T09:28:08.080Z,16.20
2019-02-17T09:29:07.970Z,16.20
2019-02-17T09:30:08.033Z,16.20
2019-02-17T09:31:07.955Z,16.20
2019-02-17T09:32:15.940Z,18.10
2019-02-17T09:33:08.104Z,18.10
2019-02-17T09:34:08.049Z,18.10
2019-02-17T09:35:08.104Z,18.10
2019-02-17T09:36:08.118Z,18.10
2019-02-17T09:37:08.035Z,18.10
2019-02-17T09:38:08.110Z,18.10
2019-02-17T09:39:08.103Z,18.10
2019-02-17T09:40:08.034Z,18.10
2019-02-17T09:41:08.109Z,18.10
2019-02-17T09:42:08.118Z,17.90
2019-02-17T09:43:08.061Z,17.90
2019-02-17T09:44:08.051Z,17.90
2019-02-17T09:45:08.144Z,17.90
2019-02-17T09:46:08.141Z,17.90
2019-02-17T09:47:08.130Z,17.90
2019-02-17T09:48:08.066Z,17.90
2019-02-17T09:49:08.130Z,17.90
2019-02-17T09:50:08.126Z,17.90
2019-02-17T09:51:08.128Z,17.90
2019-02-17T09:52:08.063Z,18.60
2019-02-17T09:53:08.129Z,18.60
2019-02-17T09:54:08.130Z,18.60
2019-02-17T09:55:08.078Z,18.60
2019-02-17T09:56:08.059Z,18.60
2019-02-17T09:57:08.119Z,18.60
2019-02-17T09:58:08.108Z,18.60
2019-02-17T09:59:08.131Z,18.60
2019-02-17T10:00:08.075Z,18.60
2019-02-17T10:01:08.132Z,18.60
2019-02-17T10:02:08.058Z,18.60
2019-02-17T10:03:08.088Z,16.00
2019-02-17T10:04:08.069Z,16.00
2019-02-17T10:05:08.089Z,16.00
2019-02-17T10:06:08.055Z,16.00
2019-02-17T10:07:08.119Z,16.00
2019-02-17T10:08:08.037Z,16.00
2019-02-17T10:09:08.054Z,16.00
2019-02-17T10:10:08.066Z,16.00
2019-02-17T10:11:08.053Z,16.00
2019-02-17T10:12:08.037Z,16.00
2019-02-17T10:13:08.071Z,19.20
2019-02-17T10:14:08.069Z,19.20
2019-02-17T10:15:10.411Z,19.20
2019-02-17T10:16:08.072Z,19.20
2019-02-17T10:17:08.135Z,19.20
2019-02-17T10:18:08.332Z,19.20
2019-02-17T10:19:08.066Z,19.20
2019-02-17T10:20:08.072Z,19.20
2019-02-17T10:21:08.206Z,19.20
2019-02-17T10:22:08.080Z,19.20
2019-02-17T10:23:08.079Z,18.80
2019-02-17T10:24:08.078Z,18.80
2019-02-17T10:25:08.169Z,18.80
2019-02-17T10:26:08.149Z,18.80
2019-02-17T10:27:08.157Z,18.80
2019-02-17T10:28:08.158Z,18.80
2019-02-17T10:29:08.151Z,18.80
2019-02-17T10:30:08.157Z,18.80
2019-02-17T10:31:08.086Z,18.80
2019-02-17T10:32:08.095Z,18.80
2019-02-17T10:33:08.148Z,17.60
2019-02-17T10:34:08.146Z,17.60
2019-02-17T10:36:08.079Z,17.60
2019-02-17T10:37:08.152Z,17.60
2019-02-17T10:38:08.072Z,17.60
2019-02-17T10:39:08.153Z,17.60
2019-02-17T10:40:08.151Z,17.60
2019-02-17T10:41:08.081Z,17.60
2019-02-17T10:42:08.157Z,17.60
2019-02-17T10:43:08.022Z,16.99
2019-02-17T10:44:08.096Z,16.99
2019-02-17T10:45:08.121Z,16.99
2019-02-17T10:46:08.140Z,16.99
2019-02-17T10:47:08.149Z,16.99
2019-02-17T10:48:08.152Z,16.99
2019-02-17T10:49:08.160Z,16.99
2019-02-17T10:50:08.156Z,16.99
2019-02-17T10:51:08.143Z,16.99
2019-02-17T10:52:08.065Z,16.99
2019-02-17T10:53:08.160Z,19.20
2019-02-17T10:54:08.163Z,19.20
2019-02-17T10:55:08.091Z,19.20
2019-02-17T10:56:08.161Z,19.20
2019-02-17T10:57:08.091Z,19.20
2019-02-17T10:58:08.170Z,19.20
2019-02-17T10:59:08.093Z,19.20
2019-02-17T11:00:08.166Z,19.20
2019-02-17T11:01:08.091Z,19.20
2019-02-17T11:02:08.173Z,19.20
2019-02-17T11:03:08.104Z,17.90
2019-02-17T11:04:08.143Z,17.90
2019-02-17T11:05:08.132Z,17.90
2019-02-17T11:06:08.110Z,17.90
2019-02-17T11:07:08.187Z,17.90
2019-02-17T11:08:08.191Z,17.90
2019-02-17T11:09:08.117Z,17.90
2019-02-17T11:10:08.249Z,17.90
2019-02-17T11:11:08.114Z,17.90
2019-02-17T11:12:08.194Z,17.90
2019-02-17T11:13:08.181Z,17.20
2019-02-17T11:14:08.186Z,17.20
2019-02-17T11:15:08.113Z,17.20
2019-02-17T11:16:08.118Z,17.20
2019-02-17T11:17:08.134Z,17.20
2019-02-17T11:18:08.114Z,17.20
2019-02-17T11:19:08.134Z,17.20
2019-02-17T11:20:08.152Z,17.20
2019-02-17T11:21:08.164Z,17.20
2019-02-17T11:22:08.132Z,17.20
2019-02-17T11:23:08.178Z,17.80
2019-02-17T11:24:08.106Z,17.80
2019-02-17T11:25:08.204Z,17.80
2019-02-17T11:26:08.108Z,17.80
2019-02-17T11:27:08.185Z,17.80
2019-02-17T11:28:08.184Z,17.80
2019-02-17T11:29:08.114Z,17.80
2019-02-17T11:30:08.120Z,17.80
2019-02-17T11:31:08.186Z,17.80
2019-02-17T11:32:08.185Z,17.80
2019-02-17T11:33:08.169Z,17.00
2019-02-17T11:34:08.071Z,17.00
2019-02-17T11:35:08.114Z,17.00
2019-02-17T11:36:08.110Z,17.00
2019-02-17T11:37:08.061Z,17.00
2019-02-17T11:38:08.170Z,17.00
2019-02-17T11:39:08.192Z,17.00
2019-02-17T11:40:08.063Z,17.00
2019-02-17T11:41:08.190Z,17.00
2019-02-17T11:42:08.076Z,17.00
2019-02-17T11:43:08.118Z,19.40
2019-02-17T11:44:08.169Z,19.40
2019-02-17T11:45:08.154Z,19.40
2019-02-17T11:46:08.173Z,19.40
2019-02-17T11:47:08.047Z,19.40
2019-02-17T11:48:08.181Z,19.40
2019-02-17T11:49:08.178Z,19.40
2019-02-17T11:50:08.158Z,19.40
2019-02-17T11:51:08.104Z,19.40
2019-02-17T11:52:08.150Z,19.40
2019-02-17T11:53:08.159Z,17.20
2019-02-17T11:54:08.212Z,17.20
2019-02-17T11:55:08.219Z,17.20
2019-02-17T11:56:08.152Z,17.20
2019-02-17T11:57:08.230Z,17.20
2019-02-17T11:58:08.212Z,17.20
2019-02-17T11:59:08.142Z,17.20
2019-02-17T12:00:08.145Z,17.20
2019-02-17T12:01:08.167Z,17.20
2019-02-17T12:02:08.149Z,17.20
2019-02-17T12:03:08.544Z,20.70
2019-02-17T12:04:08.219Z,20.70
2019-02-17T12:05:08.213Z,20.70
2019-02-17T12:06:08.177Z,20.70
2019-02-17T12:07:08.149Z,20.70
2019-02-17T12:08:08.225Z,20.70
2019-02-17T12:09:08.153Z,20.70
2019-02-17T12:10:08.151Z,20.70
2019-02-17T12:11:08.167Z,20.70
2019-02-17T12:12:08.226Z,20.70
2019-02-17T12:13:08.235Z,18.60
2019-02-17T12:14:08.288Z,18.60
2019-02-17T12:15:08.227Z,18.60
2019-02-17T12:16:08.260Z,18.60
2019-02-17T12:17:08.230Z,18.60
2019-02-17T12:18:08.234Z,18.60
2019-02-17T12:19:08.159Z,18.60
2019-02-17T12:20:08.240Z,18.60
2019-02-17T12:21:08.250Z,18.60
2019-02-17T12:22:08.250Z,18.60
2019-02-17T12:23:08.162Z,18.80
2019-02-17T12:24:08.231Z,18.80
2019-02-17T12:25:08.158Z,18.80
2019-02-17T12:26:08.227Z,18.80
2019-02-17T12:27:08.166Z,18.80
2019-02-17T12:28:08.239Z,18.80
2019-02-17T12:29:08.162Z,18.80
2019-02-17T12:30:08.301Z,18.80
2019-02-17T12:31:08.174Z,18.80
2019-02-17T12:32:08.228Z,18.80
2019-02-17T12:33:17.713Z,17.10
2019-02-17T12:34:08.179Z,17.10
2019-02-17T12:35:08.245Z,17.10
2019-02-17T12:36:08.177Z,17.10
2019-02-17T12:37:08.196Z,17.10
2019-02-17T12:38:08.246Z,17.10
2019-02-17T12:39:08.143Z,17.10
2019-02-17T12:40:08.250Z,17.10
2019-02-17T12:41:08.253Z,17.10
2019-02-17T12:42:08.250Z,17.10
2019-02-17T12:43:08.175Z,16.60
2019-02-17T12:44:08.242Z,16.60
2019-02-17T12:45:08.172Z,16.60
2019-02-17T12:46:08.183Z,16.60
2019-02-17T12:47:08.164Z,16.60
2019-02-17T12:48:08.240Z,16.60
2019-02-17T12:49:08.170Z,16.60
2019-02-17T12:50:08.240Z,16.60
2019-02-17T12:51:08.170Z,16.60
2019-02-17T12:52:08.244Z,16.60
2019-02-17T12:53:08.233Z,18.00
2019-02-17T12:54:08.151Z,18.00
2019-02-17T12:55:08.186Z,18.00
2019-02-17T12:56:08.169Z,18.00
2019-02-17T12:57:08.242Z,18.00